Time;durP1;ratioP1;P1;durP2;ratioP2;P2;SDS_P1;SDS_P2;PMS_P1;PMS_P2;Temp;Humidity;BMP_temperature;BMP_pressure;BME280_temperature;BME280_humidity;BME280_pressure;Samples;Min_cycle;Max_cycle;Signal;HPM_P1;HPM_P2
2022/03/05 00:01:50;;;;;;;;;53.25;43.00;;;;;10.32;67.53;101071.50;5054596;28;45418;-58
2022/03/05 00:04:15;;;;;;;;;53.00;42.25;;;;;10.32;67.38;101076.75;5055054;28;45552;-59
2022/03/05 00:06:41;;;;;;;;;57.50;46.75;;;;;10.31;67.50;101075.88;5054851;28;45539;-59
2022/03/05 00:09:06;;;;;;;;;55.50;45.50;;;;;10.32;67.61;101064.47;5053270;28;46097;-60
2022/03/05 00:11:32;;;;;;;;;54.25;45.25;;;;;10.35;67.47;101074.03;5054469;28;45409;-60
2022/03/05 00:13:57;;;;;;;;;57.00;47.75;;;;;10.37;67.00;101067.84;5057274;28;45411;-59
2022/03/05 00:16:22;;;;;;;;;57.50;46.75;;;;;10.41;67.21;101073.88;5058532;28;45441;-59
2022/03/05 00:18:49;;;;;;;;;60.50;48.50;;;;;10.45;67.63;101074.63;5058113;28;45356;-58
2022/03/05 00:21:14;;;;;;;;;57.50;45.75;;;;;10.44;67.76;101063.25;5058040;28;45386;-59
2022/03/05 00:23:39;;;;;;;;;58.50;47.00;;;;;10.44;67.71;101073.78;5056635;28;45541;-58
2022/03/05 00:26:05;;;;;;;;;58.25;46.00;;;;;10.44;67.40;101065.03;5058017;28;46263;-58
2022/03/05 00:28:30;;;;;;;;;58.75;48.25;;;;;10.46;67.66;101068.47;5057934;28;45988;-58
2022/03/05 00:30:58;;;;;;;;;57.00;46.50;;;;;10.45;67.70;101064.13;5057840;28;45428;-59
2022/03/05 00:33:24;;;;;;;;;58.00;47.75;;;;;10.48;67.23;101064.06;5058099;28;45475;-59
2022/03/05 00:35:49;;;;;;;;;56.25;46.00;;;;;10.50;67.56;101063.06;5057855;28;45420;-59
2022/03/05 00:38:14;;;;;;;;;58.50;49.25;;;;;10.53;67.58;101064.75;5057721;28;45449;-58
2022/03/05 00:40:41;;;;;;;;;60.00;46.00;;;;;10.53;67.55;101070.03;5057824;28;45328;-59
2022/03/05 00:43:07;;;;;;;;;56.75;46.50;;;;;10.55;67.49;101057.69;5057862;28;45481;-58
2022/03/05 00:45:32;;;;;;;;;60.75;49.00;;;;;10.59;66.63;101059.34;5057770;28;45498;-58
2022/03/05 00:47:57;;;;;;;;;61.50;49.25;;;;;10.58;66.69;101062.88;5057569;28;45471;-59
2022/03/05 00:50:23;;;;;;;;;56.00;44.50;;;;;10.62;66.54;101064.53;5057630;28;45313;-59
2022/03/05 00:52:48;;;;;;;;;55.50;45.00;;;;;10.67;67.22;101064.41;5057997;28;45336;-59
2022/03/05 00:55:14;;;;;;;;;61.50;50.25;;;;;10.67;66.80;101065.25;5056277;28;45392;-58
2022/03/05 00:57:39;;;;;;;;;57.00;47.50;;;;;10.67;66.79;101061.78;5056091;28;48353;-59
2022/03/05 01:00:07;;;;;;;;;56.75;47.50;;;;;10.66;66.96;101062.66;5057752;28;45390;-58
2022/03/05 01:02:33;;;;;;;;;58.25;44.75;;;;;10.64;67.14;101061.84;5056344;28;45510;-59
2022/03/05 01:04:58;;;;;;;;;61.50;47.50;;;;;10.54;67.16;101061.25;5057508;28;45659;-58
2022/03/05 01:07:24;;;;;;;;;61.75;48.25;;;;;10.60;67.16;101063.69;5057534;28;46253;-59
2022/03/05 01:09:49;;;;;;;;;60.50;47.00;;;;;10.63;66.79;101053.09;5057119;28;45447;-59
2022/03/05 01:12:14;;;;;;;;;55.25;45.25;;;;;10.65;66.63;101058.31;5057334;28;45393;-58
2022/03/05 01:14:40;;;;;;;;;57.00;44.00;;;;;10.56;66.74;101043.66;5057414;28;45428;-57
2022/03/05 01:17:05;;;;;;;;;54.75;43.75;;;;;10.67;67.30;101054.75;5057063;28;45438;-58
2022/03/05 01:19:30;;;;;;;;;58.00;45.75;;;;;10.68;66.45;101053.81;5057251;28;45381;-57
2022/03/05 01:21:56;;;;;;;;;55.50;46.00;;;;;10.72;66.52;101054.59;5057176;28;45663;-59
2022/03/05 01:24:21;;;;;;;;;58.00;44.00;;;;;10.75;65.79;101060.66;5056217;28;45472;-60
2022/03/05 01:26:46;;;;;;;;;52.00;43.50;;;;;10.75;65.71;101050.13;5057159;28;45513;-60
2022/03/05 01:29:12;;;;;;;;;58.25;46.00;;;;;10.73;65.17;101057.19;5057104;28;45521;-60
2022/03/05 01:31:37;;;;;;;;;53.00;44.00;;;;;10.73;65.22;101057.19;5057258;28;45568;-58
2022/03/05 01:34:02;;;;;;;;;52.75;42.75;;;;;10.74;65.37;101051.00;5057254;28;45436;-59
2022/03/05 01:36:28;;;;;;;;;51.00;41.75;;;;;10.73;65.22;101044.03;5056958;28;45475;-58
2022/03/05 01:38:53;;;;;;;;;49.00;42.25;;;;;10.72;65.95;101047.59;5056998;28;45347;-58
2022/03/05 01:41:18;;;;;;;;;50.25;40.75;;;;;10.68;64.68;101053.81;5056957;28;45315;-59
2022/03/05 01:43:51;;;;;;;;;46.00;40.75;;;;;10.61;65.43;101050.50;5056814;28;45345;-59
2022/03/05 01:46:35;;;;;;;;;56.75;46.25;;;;;10.57;65.28;101059.38;5056812;28;45457;-59
2022/03/05 01:49:03;;;;;;;;;54.50;43.75;;;;;10.62;65.28;101059.25;5056744;28;45442;-58
2022/03/05 01:51:28;;;;;;;;;55.75;43.75;;;;;10.59;65.41;101059.34;5056793;28;45441;-58
2022/03/05 01:53:54;;;;;;;;;51.50;43.25;;;;;10.57;65.05;101059.38;5056682;28;45508;-59
2022/03/05 01:56:21;;;;;;;;;53.75;44.25;;;;;10.52;64.82;101053.38;5056627;28;45999;-58
2022/03/05 01:58:48;;;;;;;;;57.25;46.00;;;;;10.54;65.42;101067.38;5056801;28;45471;-59
2022/03/05 02:01:14;;;;;;;;;49.75;41.50;;;;;10.59;65.65;101060.22;5056630;28;45434;-59
2022/03/05 02:03:40;;;;;;;;;49.25;41.75;;;;;10.56;64.80;101062.94;5056616;28;45448;-60
2022/03/05 02:06:06;;;;;;;;;54.50;42.75;;;;;10.54;65.07;101062.09;5056796;28;45495;-59
2022/03/05 02:08:31;;;;;;;;;48.75;37.50;;;;;10.58;65.89;101061.09;5056479;28;45450;-59
2022/03/05 02:10:56;;;;;;;;;55.25;42.25;;;;;10.59;65.63;101064.63;5056666;28;45452;-60
2022/03/05 02:13:22;;;;;;;;;51.75;41.25;;;;;10.61;65.03;101063.66;5056582;28;45445;-58
2022/03/05 02:15:53;;;;;;;;;46.00;40.50;;;;;10.58;65.46;101054.97;5056324;28;45430;-60
2022/03/05 02:18:19;;;;;;;;;55.00;45.50;;;;;10.61;65.03;101055.78;5056560;28;45383;-59
2022/03/05 02:20:44;;;;;;;;;51.25;42.25;;;;;10.67;65.03;101053.88;5056382;28;45370;-59
2022/03/05 02:23:09;;;;;;;;;52.00;42.00;;;;;10.66;64.59;101045.09;5056375;28;45304;-58
2022/03/05 02:25:34;;;;;;;;;55.25;42.00;;;;;10.67;65.55;101052.09;5056207;28;45969;-57
2022/03/05 02:28:01;;;;;;;;;51.50;41.75;;;;;10.69;65.18;101054.69;5056256;28;45405;-59
2022/03/05 02:30:27;;;;;;;;;52.75;42.50;;;;;10.69;64.95;101052.03;5056361;28;45434;-60
2022/03/05 02:32:52;;;;;;;;;51.75;42.25;;;;;10.66;65.09;101045.09;5056383;28;45660;-58
2022/03/05 02:35:17;;;;;;;;;52.25;44.00;;;;;10.68;65.21;101048.56;5056058;28;45519;-59
2022/03/05 02:37:43;;;;;;;;;50.50;41.25;;;;;10.66;65.01;101044.25;5055855;28;48491;-57
2022/03/05 02:40:09;;;;;;;;;42.50;36.75;;;;;10.64;65.46;101052.19;5056378;28;45425;-58
2022/03/05 02:42:34;;;;;;;;;50.25;39.75;;;;;10.67;65.38;101046.84;5056000;28;45557;-59
2022/03/05 02:44:59;;;;;;;;;53.00;43.00;;;;;10.66;65.29;101042.47;5055648;28;45887;-60
2022/03/05 02:47:25;;;;;;;;;49.50;42.25;;;;;10.61;65.25;101042.63;5056096;28;45427;-59
2022/03/05 02:49:50;;;;;;;;;45.00;39.50;;;;;10.66;64.64;101047.72;5054710;28;45351;-58
2022/03/05 02:52:15;;;;;;;;;44.25;38.25;;;;;10.63;64.24;101039.06;5055971;28;45384;-58
2022/03/05 02:54:41;;;;;;;;;55.75;42.00;;;;;10.59;64.64;101039.16;5055699;28;46161;-59
2022/03/05 02:57:06;;;;;;;;;55.75;45.25;;;;;10.63;65.08;101039.06;5055797;28;45375;-59
2022/03/05 02:59:31;;;;;;;;;56.75;46.25;;;;;10.58;64.63;101034.78;5056214;28;45423;-58
2022/03/05 03:01:57;;;;;;;;;55.50;44.50;;;;;10.58;65.41;101023.41;5055571;28;45505;-60
2022/03/05 03:04:22;;;;;;;;;54.25;45.25;;;;;10.62;64.51;101032.97;5055567;28;46218;-60
2022/03/05 03:06:50;;;;;;;;;52.75;44.00;;;;;10.61;65.19;101025.97;5055833;28;45774;-59
2022/03/05 03:09:15;;;;;;;;;46.75;41.00;;;;;10.63;65.10;101026.78;5055675;28;45501;-59
2022/03/05 03:11:41;;;;;;;;;44.50;38.00;;;;;10.63;64.80;101023.28;5055448;28;45505;-59
2022/03/05 03:14:06;;;;;;;;;51.00;42.75;;;;;10.64;64.64;101019.75;5055643;28;45568;-59
2022/03/05 03:16:31;;;;;;;;;41.50;37.00;;;;;10.63;64.61;101026.78;5055429;28;45506;-58
2022/03/05 03:18:57;;;;;;;;;48.50;39.75;;;;;10.59;64.57;101023.38;5054778;28;45506;-58
2022/03/05 03:21:22;;;;;;;;;48.25;40.50;;;;;10.58;64.78;101028.69;5054422;28;45661;-59
2022/03/05 03:23:47;;;;;;;;;52.75;40.75;;;;;10.57;65.00;101027.81;5055175;28;45599;-58
2022/03/05 03:26:12;;;;;;;;;46.25;39.00;;;;;10.55;65.07;101026.13;5055425;28;45377;-60
2022/03/05 03:28:38;;;;;;;;;52.25;40.75;;;;;10.49;64.79;101018.44;5055403;28;45385;-59
2022/03/05 03:31:03;;;;;;;;;41.75;38.00;;;;;10.52;64.16;101026.22;5055492;28;45509;-58
2022/03/05 03:33:28;;;;;;;;;46.75;38.50;;;;;10.54;64.73;101027.06;5055418;28;46010;-59
2022/03/05 03:35:54;;;;;;;;;51.00;40.00;;;;;10.56;64.42;101033.16;5055169;28;45469;-62
2022/03/05 03:38:19;;;;;;;;;50.50;41.00;;;;;10.58;63.77;101031.31;5055319;28;45320;-58
2022/03/05 03:40:45;;;;;;;;;45.25;38.00;;;;;10.54;64.43;101013.91;5055396;28;45660;-58
2022/03/05 03:43:10;;;;;;;;;40.75;38.50;;;;;10.53;63.81;101028.84;5055045;28;45981;-58
2022/03/05 03:45:35;;;;;;;;;48.75;38.75;;;;;10.50;63.83;101028.88;5055153;28;45428;-56
2022/03/05 03:48:01;;;;;;;;;48.00;39.50;;;;;10.52;63.45;101034.13;5056291;28;45493;-58
2022/03/05 03:50:26;;;;;;;;;46.25;39.75;;;;;10.51;64.59;101035.03;5058940;28;45428;-58
2022/03/05 03:52:52;;;;;;;;;47.50;38.50;;;;;10.51;63.97;101038.53;5058769;28;46184;-60
2022/03/05 03:55:20;;;;;;;;;42.50;38.25;;;;;10.49;64.21;101028.94;5058646;28;45327;-58
2022/03/05 03:57:46;;;;;;;;;54.25;44.50;;;;;10.48;63.63;101041.25;5058622;28;45514;-60
2022/03/05 04:00:15;;;;;;;;;50.75;39.00;;;;;10.47;64.13;101034.25;5058615;28;45605;-58
2022/03/05 04:02:41;;;;;;;;;51.75;41.50;;;;;10.48;63.79;101037.75;5058250;28;46576;-58
2022/03/05 04:05:07;;;;;;;;;43.00;38.75;;;;;10.45;64.37;101029.94;5058380;28;45360;-58
2022/03/05 04:10:16;;;;;;;;;51.75;43.25;;;;;10.42;64.57;101035.28;5058320;28;45319;-58
2022/03/05 04:12:42;;;;;;;;;46.00;40.25;;;;;10.41;63.95;101034.41;5058098;28;45471;-59
2022/03/05 04:15:08;;;;;;;;;48.25;38.25;;;;;10.40;64.27;101035.34;5057074;28;45535;-59
2022/03/05 04:17:33;;;;;;;;;51.75;43.50;;;;;10.41;64.38;101034.41;5058493;28;45592;-58
2022/03/05 04:19:59;;;;;;;;;45.00;38.75;;;;;10.39;64.65;101031.81;5058338;28;45471;-58
2022/03/05 04:22:24;;;;;;;;;50.75;41.75;;;;;10.38;63.97;101034.50;5058150;28;45472;-59
2022/03/05 04:24:50;;;;;;;;;45.50;39.00;;;;;10.37;64.15;101035.44;5058187;28;45481;-58
2022/03/05 04:27:15;;;;;;;;;53.50;44.25;;;;;10.32;64.37;101030.28;5058269;28;45443;-60
2022/03/05 04:29:41;;;;;;;;;47.75;40.75;;;;;10.34;64.10;101038.13;5058230;28;45652;-58
2022/03/05 04:32:07;;;;;;;;;51.25;39.25;;;;;10.37;64.23;101033.66;5058378;28;45491;-57
2022/03/05 04:34:33;;;;;;;;;51.00;38.75;;;;;10.34;64.02;101036.38;5058102;28;45469;-60
2022/03/05 04:36:59;;;;;;;;;37.50;31.50;;;;;10.29;64.46;101030.38;5057962;28;45335;-58
2022/03/05 04:39:24;;;;;;;;;50.25;42.00;;;;;10.30;64.23;101036.50;5056789;28;45403;-60
2022/03/05 04:41:49;;;;;;;;;39.50;37.00;;;;;10.28;64.79;101033.88;5057762;28;45584;-59
2022/03/05 04:44:15;;;;;;;;;48.50;42.25;;;;;10.29;64.92;101035.63;5057889;28;45394;-60
2022/03/05 04:46:41;;;;;;;;;44.75;37.75;;;;;10.30;64.63;101041.75;5057930;28;45359;-60
2022/03/05 04:49:06;;;;;;;;;46.25;38.00;;;;;10.28;64.74;101039.16;5057775;28;45391;-59
2022/03/05 04:51:32;;;;;;;;;44.75;38.50;;;;;10.33;64.62;101046.91;5057782;28;45894;-59
2022/03/05 04:53:58;;;;;;;;;43.50;38.25;;;;;10.33;64.69;101041.66;5057801;28;45361;-59
2022/03/05 04:56:23;;;;;;;;;49.00;41.25;;;;;10.34;64.40;101046.00;5057757;28;45399;-61
2022/03/05 04:58:49;;;;;;;;;44.00;39.00;;;;;10.36;65.11;101046.81;5057306;28;45494;-59
2022/03/05 05:01:14;;;;;;;;;43.50;38.50;;;;;10.33;64.69;101045.16;5056774;28;45457;-58
2022/03/05 05:03:39;;;;;;;;;53.75;42.00;;;;;10.38;64.32;101043.25;5057611;28;45420;-60
2022/03/05 05:06:06;;;;;;;;;40.00;36.25;;;;;10.39;64.25;101046.75;5057878;28;45409;-60
2022/03/05 05:08:31;;;;;;;;;45.25;38.50;;;;;10.36;64.57;101050.31;5056617;28;45641;-59
2022/03/05 05:10:57;;;;;;;;;49.25;38.75;;;;;10.37;64.37;101052.06;5057136;28;45370;-60
2022/03/05 05:13:22;;;;;;;;;40.75;38.50;;;;;10.34;64.64;101046.88;5057370;28;45413;-60
2022/03/05 05:15:47;;;;;;;;;46.50;39.00;;;;;10.36;64.51;101050.31;5057528;28;45481;-58
2022/03/05 05:18:13;;;;;;;;;53.50;44.75;;;;;10.36;63.99;101052.94;5057604;28;45517;-58
2022/03/05 05:20:38;;;;;;;;;51.50;41.25;;;;;10.34;64.49;101041.63;5057290;28;45345;-60
2022/03/05 05:23:04;;;;;;;;;48.00;38.00;;;;;10.30;64.56;101053.13;5056016;28;45466;-59
2022/03/05 05:25:29;;;;;;;;;50.50;42.00;;;;;10.34;64.75;101053.88;5057354;28;45363;-61
2022/03/05 05:27:55;;;;;;;;;46.25;39.25;;;;;10.32;64.39;101053.94;5057360;28;45373;-60
2022/03/05 05:30:21;;;;;;;;;44.75;40.00;;;;;10.35;64.54;101058.25;5057158;28;45391;-60
2022/03/05 05:32:46;;;;;;;;;46.00;38.75;;;;;10.31;64.51;101057.47;5057348;28;45344;-60
2022/03/05 05:35:11;;;;;;;;;50.50;41.50;;;;;10.31;64.13;101062.72;5057258;28;45590;-58
2022/03/05 05:37:37;;;;;;;;;49.75;41.50;;;;;10.30;64.37;101053.13;5057157;28;45327;-59
2022/03/05 05:40:03;;;;;;;;;48.50;41.25;;;;;10.29;64.94;101072.44;5056926;28;46077;-59
2022/03/05 05:42:28;;;;;;;;;45.00;39.00;;;;;10.27;64.90;101062.81;5056798;28;45536;-60
2022/03/05 05:44:53;;;;;;;;;45.50;39.50;;;;;10.23;64.74;101064.66;5055883;28;45551;-59
2022/03/05 05:47:19;;;;;;;;;49.75;41.00;;;;;10.18;64.84;101072.69;5057129;28;45486;-60
2022/03/05 05:49:44;;;;;;;;;45.50;40.00;;;;;10.17;65.22;101063.06;5056726;28;46365;-60
2022/03/05 05:52:10;;;;;;;;;44.50;38.25;;;;;10.16;65.41;101071.00;5056986;28;45561;-60
2022/03/05 05:54:36;;;;;;;;;53.25;41.50;;;;;10.15;66.04;101075.41;5057063;28;45486;-60
2022/03/05 05:57:02;;;;;;;;;53.00;42.75;;;;;10.14;65.36;101078.06;5056916;28;45438;-60
2022/03/05 05:59:27;;;;;;;;;53.50;43.75;;;;;10.12;65.74;101069.34;5056707;28;45471;-58
2022/03/05 06:01:53;;;;;;;;;57.25;46.75;;;;;10.15;65.53;101075.41;5056632;28;45445;-60
2022/03/05 06:04:18;;;;;;;;;54.00;44.25;;;;;10.16;65.58;101068.38;5056807;28;45573;-60
2022/03/05 06:06:43;;;;;;;;;46.75;40.25;;;;;10.18;65.63;101071.78;5056667;28;45470;-60
2022/03/05 06:09:09;;;;;;;;;52.75;41.00;;;;;10.18;65.51;101077.94;5056461;28;46371;-58
2022/03/05 06:11:34;;;;;;;;;52.50;42.75;;;;;10.18;65.38;101080.56;5055847;28;45481;-59
2022/03/05 06:14:00;;;;;;;;;49.25;41.00;;;;;10.14;65.94;101073.66;5056558;28;45407;-59
2022/03/05 06:16:25;;;;;;;;;48.50;42.00;;;;;10.19;65.32;101073.53;5056640;28;45346;-60
2022/03/05 06:18:51;;;;;;;;;51.50;43.75;;;;;10.23;65.21;101084.81;5056312;28;46118;-59
2022/03/05 06:21:16;;;;;;;;;52.25;41.50;;;;;10.24;65.38;101082.16;5056277;28;45406;-59
2022/03/05 06:23:41;;;;;;;;;58.25;44.75;;;;;10.24;65.38;101082.16;5054982;28;45492;-59
2022/03/05 06:26:07;;;;;;;;;54.75;43.00;;;;;10.23;65.21;101082.19;5056348;28;45363;-59
2022/03/05 06:28:33;;;;;;;;;55.75;42.25;;;;;10.22;65.25;101091.84;5056086;28;45423;-59
2022/03/05 06:30:58;;;;;;;;;51.00;42.75;;;;;10.21;65.50;101082.25;5056387;28;45501;-59
2022/03/05 06:33:24;;;;;;;;;55.25;46.00;;;;;10.17;65.46;101084.09;5056460;28;45391;-60
2022/03/05 06:35:49;;;;;;;;;50.25;41.00;;;;;10.11;65.44;101080.75;5056237;28;45406;-60
2022/03/05 06:38:14;;;;;;;;;41.50;38.00;;;;;10.10;65.40;101085.16;5056111;28;45544;-60
2022/03/05 06:40:40;;;;;;;;;55.25;45.50;;;;;10.06;65.61;101090.53;5054895;28;45453;-59
2022/03/05 06:43:05;;;;;;;;;50.00;41.25;;;;;10.02;65.98;101089.75;5056067;28;45376;-60
2022/03/05 06:45:31;;;;;;;;;51.75;42.00;;;;;10.02;65.84;101092.38;5056242;28;45422;-59
2022/03/05 06:47:57;;;;;;;;;58.25;45.50;;;;;10.04;66.13;101087.06;5055835;28;45498;-60
2022/03/05 06:50:22;;;;;;;;;53.50;43.00;;;;;10.06;66.04;101096.63;5056047;28;45459;-60
2022/03/05 06:52:47;;;;;;;;;56.00;46.00;;;;;10.07;65.93;101095.72;5056020;28;45459;-58
2022/03/05 06:55:15;;;;;;;;;53.00;43.50;;;;;10.08;66.06;101096.63;5055921;28;45365;-59
2022/03/05 06:57:41;;;;;;;;;48.50;41.75;;;;;10.05;65.53;101100.19;5055862;28;45963;-58
2022/03/05 07:00:08;;;;;;;;;56.50;45.25;;;;;10.00;64.92;101093.31;5055774;28;45416;-59
2022/03/05 07:02:34;;;;;;;;;55.25;44.50;;;;;9.99;64.22;101100.31;5055559;28;45474;-60
2022/03/05 07:04:59;;;;;;;;;50.50;43.25;;;;;10.00;64.30;101109.09;5055682;28;45444;-60
2022/03/05 07:07:24;;;;;;;;;52.50;44.00;;;;;10.02;64.22;101116.03;5055814;28;46216;-58
2022/03/05 07:09:51;;;;;;;;;51.50;42.75;;;;;10.03;63.86;101107.22;5055110;28;55568;-61
2022/03/05 07:12:16;;;;;;;;;54.75;43.50;;;;;10.09;63.41;101111.47;5055726;28;45562;-60
2022/03/05 07:14:44;;;;;;;;;55.50;43.50;;;;;10.09;62.87;101117.59;5055586;28;45590;-64
2022/03/05 07:17:10;;;;;;;;;55.25;43.75;;;;;10.10;62.36;101118.44;5055383;28;46092;-59
2022/03/05 07:19:35;;;;;;;;;54.25;44.25;;;;;10.07;62.46;101118.53;5055378;28;45323;-60
2022/03/05 07:22:00;;;;;;;;;53.00;45.00;;;;;10.09;62.12;101119.34;5054776;28;45436;-58
2022/03/05 07:24:26;;;;;;;;;55.25;45.50;;;;;10.08;61.78;101120.25;5055198;28;45631;-60
2022/03/05 07:26:51;;;;;;;;;50.50;41.75;;;;;10.08;62.23;101120.25;5055285;28;45419;-59
2022/03/05 07:29:16;;;;;;;;;53.50;42.25;;;;;10.08;61.85;101121.13;5055408;28;45410;-59
2022/03/05 07:31:42;;;;;;;;;58.00;47.00;;;;;10.09;62.13;101122.84;5055399;28;45397;-60
2022/03/05 07:34:07;;;;;;;;;53.75;45.75;;;;;10.13;62.18;101135.03;5055388;28;45637;-60
2022/03/05 07:36:33;;;;;;;;;55.25;45.50;;;;;10.14;62.33;101133.25;5055074;28;46197;-59
2022/03/05 07:38:58;;;;;;;;;57.50;47.00;;;;;10.14;62.53;101130.63;5055247;28;45398;-59
2022/03/05 07:41:23;;;;;;;;;54.75;45.00;;;;;10.11;62.32;101133.31;5055353;28;45479;-60
2022/03/05 07:43:49;;;;;;;;;51.25;41.50;;;;;10.12;62.51;101132.41;5055195;28;45410;-58
2022/03/05 07:46:14;;;;;;;;;52.75;44.00;;;;;10.15;62.69;101132.34;5055179;28;46480;-60
2022/03/05 07:48:40;;;;;;;;;57.75;46.50;;;;;10.20;62.54;101133.09;5055054;28;45426;-59
2022/03/05 07:51:05;;;;;;;;;56.25;45.25;;;;;10.22;62.09;101138.31;5055169;28;45423;-59
2022/03/05 07:53:33;;;;;;;;;57.50;45.25;;;;;10.19;62.73;101147.13;5055360;28;45538;-59
2022/03/05 07:55:59;;;;;;;;;59.00;45.75;;;;;10.16;62.81;101145.44;5053506;28;46361;-60
2022/03/05 07:58:24;;;;;;;;;60.00;47.50;;;;;10.16;62.70;101150.72;5054860;28;45384;-60
2022/03/05 08:00:50;;;;;;;;;57.75;47.25;;;;;10.12;62.80;101141.16;5054952;28;45607;-59
2022/03/05 08:03:15;;;;;;;;;56.75;44.75;;;;;10.13;63.23;101144.66;5055118;28;45379;-60
2022/03/05 08:05:43;;;;;;;;;47.50;41.00;;;;;10.15;63.03;101149.00;5054674;28;46264;-60
2022/03/05 08:08:08;;;;;;;;;53.25;43.25;;;;;10.17;63.13;101154.19;5054809;28;45438;-59
2022/03/05 08:10:33;;;;;;;;;48.25;42.75;;;;;10.20;63.56;101155.88;5054933;28;45516;-59
2022/03/05 08:12:59;;;;;;;;;50.25;42.00;;;;;10.17;63.55;101152.41;5054811;28;45468;-59
2022/03/05 08:15:24;;;;;;;;;58.25;46.25;;;;;10.18;63.61;101148.03;5054686;28;45951;-59
2022/03/05 08:17:53;;;;;;;;;55.75;44.00;;;;;10.21;63.33;101147.09;5054562;28;45540;-59
2022/03/05 08:20:20;;;;;;;;;56.00;46.25;;;;;10.19;63.84;101149.78;5054707;28;45404;-58
2022/03/05 08:22:46;;;;;;;;;57.75;46.00;;;;;10.22;64.23;101157.56;5054747;28;45569;-58
2022/03/05 08:25:12;;;;;;;;;54.25;43.25;;;;;10.27;63.92;101157.47;5054464;28;46229;-59
2022/03/05 08:27:38;;;;;;;;;54.50;46.00;;;;;10.31;63.61;101157.38;5054475;28;45354;-60
2022/03/05 08:30:04;;;;;;;;;55.75;45.25;;;;;10.36;63.54;101158.13;5054671;28;45424;-59
2022/03/05 08:32:29;;;;;;;;;54.75;43.75;;;;;10.38;63.79;101155.47;5054401;28;45425;-60
2022/03/05 08:34:55;;;;;;;;;55.50;44.75;;;;;10.44;63.61;101154.44;5056785;28;46071;-60
2022/03/05 08:37:20;;;;;;;;;54.00;45.00;;;;;10.43;64.02;101148.31;5058057;28;45469;-59
2022/03/05 08:39:45;;;;;;;;;57.75;45.25;;;;;10.45;64.28;101162.31;5058091;28;45352;-60
2022/03/05 08:42:10;;;;;;;;;60.25;48.00;;;;;10.41;63.35;101165.91;5057869;28;45420;-60
2022/03/05 08:44:36;;;;;;;;;52.50;44.25;;;;;10.44;63.66;101154.44;5057892;28;45478;-59
2022/03/05 08:47:01;;;;;;;;;78.25;61.25;;;;;10.49;63.74;101157.81;5057924;28;45426;-59
2022/03/05 08:49:27;;;;;;;;;50.25;42.50;;;;;10.54;63.43;101156.78;5058031;28;45471;-59
2022/03/05 08:51:52;;;;;;;;;56.50;48.00;;;;;10.56;63.52;101160.25;5056361;28;45365;-58
2022/03/05 08:54:20;;;;;;;;;55.00;46.25;;;;;10.61;63.33;101160.09;5057567;28;45423;-58
2022/03/05 08:56:45;;;;;;;;;93.75;86.25;;;;;10.59;62.96;101160.16;5056670;28;45470;-60
2022/03/05 08:59:11;;;;;;;;;94.00;83.00;;;;;10.60;63.00;101161.00;5057745;28;45473;-58
2022/03/05 09:01:37;;;;;;;;;156.00;137.00;;;;;10.63;63.54;101160.06;5057681;28;45421;-60
2022/03/05 09:04:03;;;;;;;;;59.25;50.00;;;;;10.66;63.90;101160.84;5056111;28;45497;-59
2022/03/05 09:06:28;;;;;;;;;56.00;46.25;;;;;10.67;63.61;101156.47;5057658;28;45516;-59
2022/03/05 09:08:53;;;;;;;;;53.50;44.50;;;;;10.72;62.91;101158.06;5057725;28;45400;-60
2022/03/05 09:11:19;;;;;;;;;52.50;42.25;;;;;10.71;63.27;101151.06;5057373;28;45473;-59
2022/03/05 09:13:44;;;;;;;;;56.75;45.75;;;;;10.74;62.96;101155.38;5057374;28;45513;-59
2022/03/05 09:16:09;;;;;;;;;55.75;44.75;;;;;10.79;63.42;101153.50;5057539;28;45523;-59
2022/03/05 09:18:35;;;;;;;;;55.50;45.00;;;;;10.84;62.22;101155.09;5057439;28;45449;-60
2022/03/05 09:21:00;;;;;;;;;57.50;46.75;;;;;10.88;62.56;101160.25;5057495;28;45499;-60
2022/03/05 09:23:26;;;;;;;;;58.00;46.50;;;;;10.97;62.44;101160.03;5057067;28;45950;-59
2022/03/05 09:25:51;;;;;;;;;53.00;44.25;;;;;11.01;62.86;101154.59;5057038;28;45463;-57
2022/03/05 09:28:17;;;;;;;;;54.75;45.50;;;;;10.99;61.58;101156.44;5057201;28;45583;-60
2022/03/05 09:30:42;;;;;;;;;50.00;42.00;;;;;11.03;61.57;101159.84;5057216;28;45467;-59
2022/03/05 09:33:07;;;;;;;;;53.00;43.25;;;;;11.05;61.57;101168.56;5056851;28;45493;-58
2022/03/05 09:35:33;;;;;;;;;49.50;42.50;;;;;11.08;61.91;101165.84;5056924;28;45437;-57
2022/03/05 09:37:59;;;;;;;;;50.25;40.75;;;;;11.17;61.10;101160.31;5057083;28;45422;-59
2022/03/05 09:40:24;;;;;;;;;53.75;44.75;;;;;11.27;61.22;101164.41;5056729;28;45308;-57
2022/03/05 09:42:50;;;;;;;;;45.50;40.25;;;;;11.32;61.40;101166.06;5056910;28;45449;-59
2022/03/05 09:45:15;;;;;;;;;49.00;42.50;;;;;11.34;60.62;101158.94;5056107;28;45464;-58
2022/03/05 09:47:42;;;;;;;;;56.50;44.75;;;;;11.43;60.66;101156.91;5056885;28;45401;-58
2022/03/05 09:50:09;;;;;;;;;54.00;44.00;;;;;11.53;59.02;101154.03;5056732;28;45449;-57
2022/03/05 09:52:34;;;;;;;;;51.00;42.00;;;;;11.63;58.95;101158.06;5056349;28;46308;-59
2022/03/05 09:55:01;;;;;;;;;48.25;41.75;;;;;11.66;58.87;101155.34;5056355;28;45378;-60
2022/03/05 09:57:27;;;;;;;;;52.50;43.50;;;;;11.72;58.11;101156.03;5056857;28;45469;-59
2022/03/05 09:59:52;;;;;;;;;52.50;44.00;;;;;11.79;57.57;101143.50;5056289;28;45551;-58
2022/03/05 10:02:19;;;;;;;;;53.75;42.25;;;;;11.88;57.77;101150.31;5055200;28;46820;-59
2022/03/05 10:04:44;;;;;;;;;54.00;43.50;;;;;11.93;57.07;101143.13;5056485;28;45348;-60
2022/03/05 10:07:11;;;;;;;;;50.50;40.25;;;;;12.13;56.35;101153.00;5056645;28;45329;-58
2022/03/05 10:09:38;;;;;;;;;53.25;43.00;;;;;12.39;56.34;101149.50;5056583;28;45430;-60
2022/03/05 10:12:25;;;;;;;;;52.50;43.00;;;;;12.74;55.04;101145.66;5056216;28;46086;-59
2022/03/05 10:15:04;;;;;;;;;54.75;44.75;;;;;12.77;53.71;101139.41;5056314;28;45493;-59
2022/03/05 10:17:53;;;;;;;;;52.50;43.00;;;;;12.82;52.94;101151.50;5056405;28;45340;-60
2022/03/05 10:20:33;;;;;;;;;54.00;43.75;;;;;12.93;52.96;101150.28;5054946;28;45597;-60
2022/03/05 10:23:08;;;;;;;;;49.75;41.50;;;;;12.92;52.28;101151.16;5056056;28;45670;-59
2022/03/05 10:25:33;;;;;;;;;49.00;41.75;;;;;12.83;50.77;101147.94;5056179;28;45430;-60
2022/03/05 10:28:11;;;;;;;;;51.50;42.50;;;;;12.75;51.07;101146.50;5056168;28;45438;-60
2022/03/05 10:30:44;;;;;;;;;46.00;40.00;;;;;12.77;50.75;101142.03;5056218;28;45439;-60
2022/03/05 10:33:23;;;;;;;;;49.00;40.75;;;;;12.93;50.88;101148.47;5056196;28;46389;-59
2022/03/05 10:35:48;;;;;;;;;53.25;44.00;;;;;12.96;51.44;101148.38;5056099;28;45467;-59
2022/03/05 10:38:14;;;;;;;;;58.50;44.25;;;;;12.78;52.10;101149.03;5056085;28;45526;-59
2022/03/05 10:40:39;;;;;;;;;55.75;45.00;;;;;12.69;52.91;101146.72;5056255;28;45657;-58
2022/03/05 10:43:07;;;;;;;;;50.50;43.25;;;;;12.67;52.10;101146.75;5055911;28;45477;-60
2022/03/05 10:45:51;;;;;;;;;54.00;43.50;;;;;12.68;52.45;101142.34;5056095;28;45525;-58
2022/03/05 10:48:25;;;;;;;;;53.50;43.50;;;;;12.70;53.85;101149.28;5054555;28;45424;-58
2022/03/05 10:50:57;;;;;;;;;56.00;46.00;;;;;12.74;53.54;101143.00;5055880;28;45462;-59
2022/03/05 10:53:45;;;;;;;;;54.25;44.75;;;;;12.71;52.95;101148.41;5055853;28;46214;-58
2022/03/05 10:56:32;;;;;;;;;54.75;44.75;;;;;12.67;53.47;101145.91;5055674;28;45481;-57
2022/03/05 10:58:59;;;;;;;;;56.75;46.75;;;;;12.62;52.98;101142.56;5056091;28;45425;-58
2022/03/05 11:01:25;;;;;;;;;56.00;45.25;;;;;12.50;52.98;101138.59;5055888;28;45628;-58
2022/03/05 11:03:54;;;;;;;;;54.25;45.00;;;;;12.40;53.48;101145.94;5055263;28;46172;-58
2022/03/05 11:06:20;;;;;;;;;52.75;44.25;;;;;12.38;53.47;101145.13;5055572;28;45435;-59
2022/03/05 11:08:47;;;;;;;;;62.25;50.25;;;;;12.33;53.61;101147.94;5055802;28;45439;-58